sensor_id;sensor_type;location;lat;lon;timestamp;pressure;altitude;pressure_sealevel;temperature;humidity
42771;BME280;28426;42.872;25.314;2022-09-27T00:01:13;96031.81;;;16.76;66.19
42771;BME280;28426;42.872;25.314;2022-09-27T00:03:44;96031.28;;;16.74;66.42
42771;BME280;28426;42.872;25.314;2022-09-27T00:06:19;96025.31;;;16.72;66.38
42771;BME280;28426;42.872;25.314;2022-09-27T00:08:51;96023.94;;;16.69;66.80
42771;BME280;28426;42.872;25.314;2022-09-27T00:11:25;96020.16;;;16.70;66.76
42771;BME280;28426;42.872;25.314;2022-09-27T00:13:57;96014.47;;;16.67;67.03
42771;BME280;28426;42.872;25.314;2022-09-27T00:16:33;96008.59;;;16.70;67.46
42771;BME280;28426;42.872;25.314;2022-09-27T00:19:06;96004.25;;;16.69;67.16
42771;BME280;28426;42.872;25.314;2022-09-27T00:21:37;95999.13;;;16.67;67.84
42771;BME280;28426;42.872;25.314;2022-09-27T00:24:10;95998.81;;;16.64;67.32
42771;BME280;28426;42.872;25.314;2022-09-27T00:26:41;95993.66;;;16.62;67.74
42771;BME280;28426;42.872;25.314;2022-09-27T00:29:14;95996.88;;;16.59;67.98
42771;BME280;28426;42.872;25.314;2022-09-27T00:31:48;95995.50;;;16.56;68.15
42771;BME280;28426;42.872;25.314;2022-09-27T00:34:19;95988.75;;;16.54;68.41
42771;BME280;28426;42.872;25.314;2022-09-27T00:36:51;95989.72;;;16.47;68.24
42771;BME280;28426;42.872;25.314;2022-09-27T00:39:22;96004.00;;;16.48;68.36
42771;BME280;28426;42.872;25.314;2022-09-27T00:41:53;95999.69;;;16.47;68.66
42771;BME280;28426;42.872;25.314;2022-09-27T00:47:33;95984.03;;;16.44;69.00
42771;BME280;28426;42.872;25.314;2022-09-27T00:50:09;95988.84;;;16.42;68.78
42771;BME280;28426;42.872;25.314;2022-09-27T00:52:46;95982.91;;;16.40;69.03
42771;BME280;28426;42.872;25.314;2022-09-27T00:55:24;95976.41;;;16.36;68.76
42771;BME280;28426;42.872;25.314;2022-09-27T00:57:58;95988.22;;;16.34;68.99
42771;BME280;28426;42.872;25.314;2022-09-27T01:00:29;95978.19;;;16.30;68.90
42771;BME280;28426;42.872;25.314;2022-09-27T01:03:04;95983.59;;;16.30;68.92
42771;BME280;28426;42.872;25.314;2022-09-27T01:05:38;95968.75;;;16.27;69.23
42771;BME280;28426;42.872;25.314;2022-09-27T01:08:10;95974.38;;;16.26;69.48
42771;BME280;28426;42.872;25.314;2022-09-27T01:10:48;95978.38;;;16.23;69.26
42771;BME280;28426;42.872;25.314;2022-09-27T01:13:29;95981.06;;;16.23;69.40
42771;BME280;28426;42.872;25.314;2022-09-27T01:16:10;95983.22;;;16.21;69.90
42771;BME280;28426;42.872;25.314;2022-09-27T01:18:54;95985.56;;;16.17;69.83
42771;BME280;28426;42.872;25.314;2022-09-27T01:21:50;95993.41;;;16.19;69.96
42771;BME280;28426;42.872;25.314;2022-09-27T01:24:51;95985.13;;;16.03;70.36
42771;BME280;28426;42.872;25.314;2022-09-27T01:27:54;96013.00;;;16.14;70.04
42771;BME280;28426;42.872;25.314;2022-09-27T01:30:41;96016.75;;;16.13;69.79
42771;BME280;28426;42.872;25.314;2022-09-27T01:33:24;95999.72;;;16.07;69.83
42771;BME280;28426;42.872;25.314;2022-09-27T01:36:07;96007.28;;;16.11;70.15
42771;BME280;28426;42.872;25.314;2022-09-27T01:38:46;96004.03;;;16.08;70.03
42771;BME280;28426;42.872;25.314;2022-09-27T01:41:33;96007.78;;;16.07;69.92
42771;BME280;28426;42.872;25.314;2022-09-27T01:44:23;96013.66;;;16.04;70.49
42771;BME280;28426;42.872;25.314;2022-09-27T01:47:13;95994.00;;;15.87;70.46
42771;BME280;28426;42.872;25.314;2022-09-27T01:49:52;96006.91;;;16.02;70.42
42771;BME280;28426;42.872;25.314;2022-09-27T01:52:30;95985.22;;;15.91;70.76
42771;BME280;28426;42.872;25.314;2022-09-27T01:55:05;95989.50;;;15.92;70.37
42771;BME280;28426;42.872;25.314;2022-09-27T01:58:09;95994.59;;;15.89;70.95
42771;BME280;28426;42.872;25.314;2022-09-27T02:00:47;96000.44;;;15.86;70.37
42771;BME280;28426;42.872;25.314;2022-09-27T02:03:24;95996.94;;;15.85;70.74
42771;BME280;28426;42.872;25.314;2022-09-27T02:06:16;96000.94;;;15.82;70.57
42771;BME280;28426;42.872;25.314;2022-09-27T02:08:59;95997.69;;;15.80;70.75
42771;BME280;28426;42.872;25.314;2022-09-27T02:12:03;95991.72;;;15.78;70.54
42771;BME280;28426;42.872;25.314;2022-09-27T02:14:39;95988.47;;;15.76;70.83
42771;BME280;28426;42.872;25.314;2022-09-27T02:17:16;95991.66;;;15.73;70.97
42771;BME280;28426;42.872;25.314;2022-09-27T02:20:00;95985.47;;;15.73;71.07
42771;BME280;28426;42.872;25.314;2022-09-27T02:22:46;95980.81;;;15.68;70.71
42771;BME280;28426;42.872;25.314;2022-09-27T02:25:21;95981.41;;;15.70;71.08
42771;BME280;28426;42.872;25.314;2022-09-27T02:27:59;95968.91;;;15.64;71.27
42771;BME280;28426;42.872;25.314;2022-09-27T02:30:35;95973.00;;;15.66;71.04
42771;BME280;28426;42.872;25.314;2022-09-27T02:33:21;95968.44;;;15.67;71.10
42771;BME280;28426;42.872;25.314;2022-09-27T02:35:55;95974.88;;;15.66;71.25
42771;BME280;28426;42.872;25.314;2022-09-27T02:38:26;95974.88;;;15.66;71.28
42771;BME280;28426;42.872;25.314;2022-09-27T02:40:58;95983.19;;;15.64;71.51
42771;BME280;28426;42.872;25.314;2022-09-27T02:43:31;95993.59;;;15.61;71.58
42771;BME280;28426;42.872;25.314;2022-09-27T02:46:17;95995.25;;;15.62;71.83
42771;BME280;28426;42.872;25.314;2022-09-27T02:49:00;95989.88;;;15.62;71.79
42771;BME280;28426;42.872;25.314;2022-09-27T02:51:45;95988.16;;;15.55;72.38
42771;BME280;28426;42.872;25.314;2022-09-27T02:54:23;95990.28;;;15.53;72.37
42771;BME280;28426;42.872;25.314;2022-09-27T02:57:24;95996.44;;;15.54;72.08
42771;BME280;28426;42.872;25.314;2022-09-27T03:00:06;95990.53;;;15.52;72.30
42771;BME280;28426;42.872;25.314;2022-09-27T03:03:06;95978.94;;;15.51;72.36
42771;BME280;28426;42.872;25.314;2022-09-27T03:05:51;95979.22;;;15.50;72.62
42771;BME280;28426;42.872;25.314;2022-09-27T03:08:26;95981.91;;;15.50;72.57
42771;BME280;28426;42.872;25.314;2022-09-27T03:10:57;95990.75;;;15.50;72.34
42771;BME280;28426;42.872;25.314;2022-09-27T03:13:27;95982.13;;;15.48;72.37
42771;BME280;28426;42.872;25.314;2022-09-27T03:15:59;95969.41;;;15.43;72.15
42771;BME280;28426;42.872;25.314;2022-09-27T03:18:49;95964.28;;;15.42;72.05
42771;BME280;28426;42.872;25.314;2022-09-27T03:21:58;95964.78;;;15.39;72.29
42771;BME280;28426;42.872;25.314;2022-09-27T03:24:31;95969.56;;;15.37;71.97
42771;BME280;28426;42.872;25.314;2022-09-27T03:27:02;95963.66;;;15.35;72.28
42771;BME280;28426;42.872;25.314;2022-09-27T03:29:33;95948.00;;;15.32;72.77
42771;BME280;28426;42.872;25.314;2022-09-27T03:32:07;95950.59;;;15.26;72.77
42771;BME280;28426;42.872;25.314;2022-09-27T03:35:04;95965.34;;;15.24;72.73
42771;BME280;28426;42.872;25.314;2022-09-27T03:37:34;95964.75;;;15.22;73.09
42771;BME280;28426;42.872;25.314;2022-09-27T03:40:08;95971.78;;;15.23;73.34
42771;BME280;28426;42.872;25.314;2022-09-27T03:42:39;95973.06;;;15.20;73.26
42771;BME280;28426;42.872;25.314;2022-09-27T03:45:16;95972.81;;;15.22;73.15
42771;BME280;28426;42.872;25.314;2022-09-27T03:47:47;95969.91;;;15.23;73.21
42771;BME280;28426;42.872;25.314;2022-09-27T03:50:18;95961.84;;;15.23;73.26
42771;BME280;28426;42.872;25.314;2022-09-27T03:52:48;95939.28;;;15.24;73.44
42771;BME280;28426;42.872;25.314;2022-09-27T03:55:24;95917.78;;;15.24;73.63
42771;BME280;28426;42.872;25.314;2022-09-27T03:57:55;95920.97;;;15.21;73.30
42771;BME280;28426;42.872;25.314;2022-09-27T04:00:25;95916.91;;;15.19;73.97
42771;BME280;28426;42.872;25.314;2022-09-27T04:02:59;95895.06;;;15.15;73.62
42771;BME280;28426;42.872;25.314;2022-09-27T04:05:53;95888.28;;;15.12;73.82
42771;BME280;28426;42.872;25.314;2022-09-27T04:08:33;95892.78;;;15.07;73.70
42771;BME280;28426;42.872;25.314;2022-09-27T04:11:08;95892.78;;;15.07;73.57
42771;BME280;28426;42.872;25.314;2022-09-27T04:13:41;95890.00;;;15.01;73.83
42771;BME280;28426;42.872;25.314;2022-09-27T04:16:12;95888.47;;;15.06;74.08
42771;BME280;28426;42.872;25.314;2022-09-27T04:18:53;95888.38;;;15.00;73.92
42771;BME280;28426;42.872;25.314;2022-09-27T04:21:45;95906.47;;;15.05;74.21
42771;BME280;28426;42.872;25.314;2022-09-27T04:24:16;95902.72;;;15.06;74.16
42771;BME280;28426;42.872;25.314;2022-09-27T04:27:00;95891.97;;;15.06;74.23
42771;BME280;28426;42.872;25.314;2022-09-27T04:29:31;95873.72;;;15.08;74.51
42771;BME280;28426;42.872;25.314;2022-09-27T04:32:19;95863.22;;;15.07;74.57
42771;BME280;28426;42.872;25.314;2022-09-27T04:35:13;95859.72;;;15.06;74.49
42771;BME280;28426;42.872;25.314;2022-09-27T04:38:07;95873.41;;;15.04;74.48
42771;BME280;28426;42.872;25.314;2022-09-27T04:40:39;95869.66;;;15.06;74.37
42771;BME280;28426;42.872;25.314;2022-09-27T04:43:14;95856.22;;;15.06;74.66
42771;BME280;28426;42.872;25.314;2022-09-27T04:45:45;95861.59;;;15.06;74.89
42771;BME280;28426;42.872;25.314;2022-09-27T04:48:16;95851.09;;;15.04;74.99
42771;BME280;28426;42.872;25.314;2022-09-27T04:50:55;95849.78;;;15.07;75.03
42771;BME280;28426;42.872;25.314;2022-09-27T04:53:25;95852.22;;;15.08;74.84
42771;BME280;28426;42.872;25.314;2022-09-27T04:55:57;95839.88;;;15.07;75.43
42771;BME280;28426;42.872;25.314;2022-09-27T04:58:32;95849.31;;;15.10;75.45
42771;BME280;28426;42.872;25.314;2022-09-27T05:01:03;95852.56;;;15.12;75.38
42771;BME280;28426;42.872;25.314;2022-09-27T05:03:44;95859.09;;;15.16;75.75
42771;BME280;28426;42.872;25.314;2022-09-27T05:06:15;95853.78;;;15.21;75.95
42771;BME280;28426;42.872;25.314;2022-09-27T05:08:46;95852.25;;;15.25;75.83
42771;BME280;28426;42.872;25.314;2022-09-27T05:11:25;95848.00;;;15.29;75.92
42771;BME280;28426;42.872;25.314;2022-09-27T05:14:31;95849.09;;;15.34;75.95
42771;BME280;28426;42.872;25.314;2022-09-27T05:17:17;95839.50;;;15.38;75.60
42771;BME280;28426;42.872;25.314;2022-09-27T05:20:07;95837.16;;;15.41;75.57
42771;BME280;28426;42.872;25.314;2022-09-27T05:22:51;95825.25;;;15.37;75.62
42771;BME280;28426;42.872;25.314;2022-09-27T05:25:24;95826.63;;;15.40;75.49
42771;BME280;28426;42.872;25.314;2022-09-27T05:27:54;95823.53;;;15.48;75.66
42771;BME280;28426;42.872;25.314;2022-09-27T05:30:28;95807.88;;;15.45;75.20
42771;BME280;28426;42.872;25.314;2022-09-27T05:33:10;95826.28;;;15.53;75.25
42771;BME280;28426;42.872;25.314;2022-09-27T05:35:51;95817.22;;;15.60;75.40
42771;BME280;28426;42.872;25.314;2022-09-27T05:38:26;95830.22;;;15.68;75.91
42771;BME280;28426;42.872;25.314;2022-09-27T05:40:59;95828.72;;;15.77;75.47
42771;BME280;28426;42.872;25.314;2022-09-27T05:43:30;95839.53;;;15.82;75.46
42771;BME280;28426;42.872;25.314;2022-09-27T05:46:05;95832.84;;;15.85;75.27
42771;BME280;28426;42.872;25.314;2022-09-27T05:48:38;95835.03;;;15.88;74.83
42771;BME280;28426;42.872;25.314;2022-09-27T05:51:10;95824.16;;;15.78;74.75
42771;BME280;28426;42.872;25.314;2022-09-27T05:53:41;95840.47;;;15.93;74.95
42771;BME280;28426;42.872;25.314;2022-09-27T05:56:23;95852.16;;;15.99;74.70
42771;BME280;28426;42.872;25.314;2022-09-27T05:59:23;95855.97;;;16.03;74.98
42771;BME280;28426;42.872;25.314;2022-09-27T06:02:15;95846.28;;;16.02;74.80
42771;BME280;28426;42.872;25.314;2022-09-27T06:05:10;95854.16;;;16.09;74.66
42771;BME280;28426;42.872;25.314;2022-09-27T06:08:11;95860.34;;;16.10;74.43
42771;BME280;28426;42.872;25.314;2022-09-27T06:10:46;95853.88;;;16.11;74.46
42771;BME280;28426;42.872;25.314;2022-09-27T06:13:17;95858.22;;;16.12;74.40
42771;BME280;28426;42.872;25.314;2022-09-27T06:15:51;95852.59;;;16.13;74.13
42771;BME280;28426;42.872;25.314;2022-09-27T06:18:25;95850.47;;;16.15;74.46
42771;BME280;28426;42.872;25.314;2022-09-27T06:20:57;95845.13;;;16.20;74.41
42771;BME280;28426;42.872;25.314;2022-09-27T06:23:29;95838.19;;;16.25;74.37
42771;BME280;28426;42.872;25.314;2022-09-27T06:26:08;95847.13;;;16.30;74.22
42771;BME280;28426;42.872;25.314;2022-09-27T06:28:52;95837.22;;;16.36;74.26
42771;BME280;28426;42.872;25.314;2022-09-27T06:31:23;95811.84;;;16.27;74.08
42771;BME280;28426;42.872;25.314;2022-09-27T06:34:25;95834.06;;;16.44;73.57
42771;BME280;28426;42.872;25.314;2022-09-27T06:36:56;95824.13;;;16.45;73.47
42771;BME280;28426;42.872;25.314;2022-09-27T06:39:28;95819.84;;;16.49;73.62
42771;BME280;28426;42.872;25.314;2022-09-27T06:42:21;95811.28;;;16.52;73.79
42771;BME280;28426;42.872;25.314;2022-09-27T06:45:00;95799.72;;;16.57;73.88
42771;BME280;28426;42.872;25.314;2022-09-27T06:47:44;95792.00;;;16.66;73.90
42771;BME280;28426;42.872;25.314;2022-09-27T06:50:46;95782.41;;;16.80;74.09
42771;BME280;28426;42.872;25.314;2022-09-27T06:53:18;95787.34;;;16.94;73.51
42771;BME280;28426;42.872;25.314;2022-09-27T06:55:50;95785.81;;;17.03;72.96
42771;BME280;28426;42.872;25.314;2022-09-27T06:58:21;95779.13;;;17.11;72.74
42771;BME280;28426;42.872;25.314;2022-09-27T07:01:33;95769.72;;;17.13;72.51
42771;BME280;28426;42.872;25.314;2022-09-27T07:04:22;95778.44;;;17.26;72.58
42771;BME280;28426;42.872;25.314;2022-09-27T07:07:08;95784.44;;;17.38;72.67
42771;BME280;28426;42.872;25.314;2022-09-27T07:09:49;95790.44;;;17.51;72.70
42771;BME280;28426;42.872;25.314;2022-09-27T07:12:20;95793.16;;;17.61;72.92
42771;BME280;28426;42.872;25.314;2022-09-27T07:14:52;95797.53;;;17.73;73.21
42771;BME280;28426;42.872;25.314;2022-09-27T07:17:23;95795.38;;;17.75;73.43
42771;BME280;28426;42.872;25.314;2022-09-27T07:19:54;95814.31;;;17.85;72.72
42771;BME280;28426;42.872;25.314;2022-09-27T07:22:27;95812.16;;;17.82;72.68
42771;BME280;28426;42.872;25.314;2022-09-27T07:25:02;95827.53;;;17.87;72.55
42771;BME280;28426;42.872;25.314;2022-09-27T07:27:33;95818.34;;;17.83;72.50
42771;BME280;28426;42.872;25.314;2022-09-27T07:30:08;95822.94;;;17.82;71.92
42771;BME280;28426;42.872;25.314;2022-09-27T07:32:40;95830.47;;;17.80;71.90
42771;BME280;28426;42.872;25.314;2022-09-27T07:35:12;95822.91;;;17.77;72.05
42771;BME280;28426;42.872;25.314;2022-09-27T07:37:46;95828.84;;;17.74;72.19
42771;BME280;28426;42.872;25.314;2022-09-27T07:40:17;95824.22;;;17.69;71.96
42771;BME280;28426;42.872;25.314;2022-09-27T07:42:53;95829.09;;;17.67;71.91
42771;BME280;28426;42.872;25.314;2022-09-27T07:45:24;95827.72;;;17.64;71.78
42771;BME280;28426;42.872;25.314;2022-09-27T07:48:16;95819.06;;;17.62;72.00
42771;BME280;28426;42.872;25.314;2022-09-27T07:51:15;95825.53;;;17.61;72.08
42771;BME280;28426;42.872;25.314;2022-09-27T07:53:55;95829.31;;;17.60;71.75
42771;BME280;28426;42.872;25.314;2022-09-27T07:57:09;95825.53;;;17.56;71.64
42771;BME280;28426;42.872;25.314;2022-09-27T07:59:51;95827.97;;;17.58;71.59
42771;BME280;28426;42.872;25.314;2022-09-27T08:02:22;95833.03;;;17.54;71.82
42771;BME280;28426;42.872;25.314;2022-09-27T08:04:53;95833.59;;;17.51;71.60
42771;BME280;28426;42.872;25.314;2022-09-27T08:07:26;95824.06;;;17.43;71.37
42771;BME280;28426;42.872;25.314;2022-09-27T08:09:59;95805.94;;;17.28;71.60
42771;BME280;28426;42.872;25.314;2022-09-27T08:12:30;95824.59;;;17.35;71.75
42771;BME280;28426;42.872;25.314;2022-09-27T08:15:00;95824.84;;;17.33;71.85
42771;BME280;28426;42.872;25.314;2022-09-27T08:17:32;95829.13;;;17.29;72.15
42771;BME280;28426;42.872;25.314;2022-09-27T08:20:08;95822.66;;;17.30;72.25
42771;BME280;28426;42.872;25.314;2022-09-27T08:22:46;95823.75;;;17.29;72.17
42771;BME280;28426;42.872;25.314;2022-09-27T08:25:33;95817.28;;;17.30;72.37
42771;BME280;28426;42.872;25.314;2022-09-27T08:28:23;95800.28;;;17.30;72.81
42771;BME280;28426;42.872;25.314;2022-09-27T08:31:10;95807.31;;;17.31;72.83
42771;BME280;28426;42.872;25.314;2022-09-27T08:33:41;95820.50;;;17.32;73.41
42771;BME280;28426;42.872;25.314;2022-09-27T08:36:12;95832.69;;;17.35;72.93
42771;BME280;28426;42.872;25.314;2022-09-27T08:38:42;95825.38;;;17.35;73.31
42771;BME280;28426;42.872;25.314;2022-09-27T08:41:23;95821.09;;;17.39;73.39
42771;BME280;28426;42.872;25.314;2022-09-27T08:44:08;95825.44;;;17.46;73.76
42771;BME280;28426;42.872;25.314;2022-09-27T08:47:00;95809.81;;;17.48;73.64
42771;BME280;28426;42.872;25.314;2022-09-27T08:49:35;95802.84;;;17.52;73.63
42771;BME280;28426;42.872;25.314;2022-09-27T08:52:15;95801.25;;;17.61;73.69
42771;BME280;28426;42.872;25.314;2022-09-27T08:54:48;95805.09;;;17.71;73.39
42771;BME280;28426;42.872;25.314;2022-09-27T08:57:23;95791.88;;;17.80;73.51
42771;BME280;28426;42.872;25.314;2022-09-27T09:00:01;95799.19;;;17.84;73.16
42771;BME280;28426;42.872;25.314;2022-09-27T09:02:34;95790.63;;;17.98;73.20
42771;BME280;28426;42.872;25.314;2022-09-27T09:05:09;95791.22;;;18.10;73.04
42771;BME280;28426;42.872;25.314;2022-09-27T09:07:56;95773.16;;;18.16;72.50
42771;BME280;28426;42.872;25.314;2022-09-27T09:10:43;95769.94;;;18.29;72.15
42771;BME280;28426;42.872;25.314;2022-09-27T09:13:43;95767.25;;;18.40;71.56
42771;BME280;28426;42.872;25.314;2022-09-27T09:16:25;95759.41;;;18.49;71.29
42771;BME280;28426;42.872;25.314;2022-09-27T09:19:31;95744.56;;;18.62;71.18
42771;BME280;28426;42.872;25.314;2022-09-27T09:22:39;95719.41;;;18.72;70.77
42771;BME280;28426;42.872;25.314;2022-09-27T09:25:33;95729.69;;;18.85;70.04
42771;BME280;28426;42.872;25.314;2022-09-27T09:28:16;95719.41;;;18.92;69.65
42771;BME280;28426;42.872;25.314;2022-09-27T09:31:01;95707.75;;;18.97;69.45
42771;BME280;28426;42.872;25.314;2022-09-27T09:33:37;95706.69;;;19.08;69.15
42771;BME280;28426;42.872;25.314;2022-09-27T09:36:13;95706.94;;;19.23;69.39
42771;BME280;28426;42.872;25.314;2022-09-27T09:38:47;95700.94;;;19.36;68.78
42771;BME280;28426;42.872;25.314;2022-09-27T09:41:23;95694.94;;;19.50;68.40
42771;BME280;28426;42.872;25.314;2022-09-27T09:43:57;95688.34;;;19.66;67.63
42771;BME280;28426;42.872;25.314;2022-09-27T09:46:37;95680.66;;;19.84;67.18
42771;BME280;28426;42.872;25.314;2022-09-27T09:49:15;95688.47;;;20.01;66.58
42771;BME280;28426;42.872;25.314;2022-09-27T09:51:51;95688.34;;;20.17;65.66
42771;BME280;28426;42.872;25.314;2022-09-27T09:54:27;95678.47;;;20.31;66.06
42771;BME280;28426;42.872;25.314;2022-09-27T09:57:05;95685.69;;;20.46;65.22
42771;BME280;28426;42.872;25.314;2022-09-27T09:59:42;95673.09;;;20.61;63.83
42771;BME280;28426;42.872;25.314;2022-09-27T10:02:27;95674.91;;;20.71;60.82
42771;BME280;28426;42.872;25.314;2022-09-27T10:05:13;95677.75;;;20.85;56.20
42771;BME280;28426;42.872;25.314;2022-09-27T10:07:46;95669.53;;;20.95;58.42
42771;BME280;28426;42.872;25.314;2022-09-27T10:10:19;95675.59;;;21.11;57.47
42771;BME280;28426;42.872;25.314;2022-09-27T10:12:54;95663.84;;;21.21;56.31
42771;BME280;28426;42.872;25.314;2022-09-27T10:15:30;95649.63;;;21.29;56.61
42771;BME280;28426;42.872;25.314;2022-09-27T10:18:04;95657.56;;;21.45;56.20
42771;BME280;28426;42.872;25.314;2022-09-27T10:20:38;95653.59;;;21.56;54.76
42771;BME280;28426;42.872;25.314;2022-09-27T10:23:14;95662.94;;;21.69;55.08
42771;BME280;28426;42.872;25.314;2022-09-27T10:26:06;95672.28;;;21.82;55.01
42771;BME280;28426;42.872;25.314;2022-09-27T10:28:41;95666.72;;;21.93;53.77
42771;BME280;28426;42.872;25.314;2022-09-27T10:31:19;95670.41;;;22.02;53.18
42771;BME280;28426;42.872;25.314;2022-09-27T10:34:17;95662.66;;;22.10;52.62
42771;BME280;28426;42.872;25.314;2022-09-27T10:37:03;95657.38;;;22.18;53.37
42771;BME280;28426;42.872;25.314;2022-09-27T10:39:37;95640.53;;;22.36;55.30
42771;BME280;28426;42.872;25.314;2022-09-27T10:42:20;95636.44;;;22.52;57.08
42771;BME280;28426;42.872;25.314;2022-09-27T10:44:51;95647.78;;;22.73;57.60
42771;BME280;28426;42.872;25.314;2022-09-27T10:47:35;95666.97;;;22.96;57.97
42771;BME280;28426;42.872;25.314;2022-09-27T10:50:35;95677.66;;;23.21;58.05
42771;BME280;28426;42.872;25.314;2022-09-27T10:53:36;95681.09;;;23.41;56.59
42771;BME280;28426;42.872;25.314;2022-09-27T10:56:20;95666.28;;;23.47;56.26
42771;BME280;28426;42.872;25.314;2022-09-27T10:58:52;95656.59;;;23.55;56.76
42771;BME280;28426;42.872;25.314;2022-09-27T11:01:25;95669.50;;;23.63;55.86
42771;BME280;28426;42.872;25.314;2022-09-27T11:04:19;95659.19;;;23.74;55.58
42771;BME280;28426;42.872;25.314;2022-09-27T11:07:06;95649.88;;;23.89;55.49
42771;BME280;28426;42.872;25.314;2022-09-27T11:09:49;95650.63;;;24.03;55.96
42771;BME280;28426;42.872;25.314;2022-09-27T11:12:22;95651.09;;;24.20;55.90
42771;BME280;28426;42.872;25.314;2022-09-27T11:14:56;95660.81;;;24.35;54.90
42771;BME280;28426;42.872;25.314;2022-09-27T11:17:34;95660.25;;;24.47;55.01
42771;BME280;28426;42.872;25.314;2022-09-27T11:20:20;95672.03;;;24.56;54.13
42771;BME280;28426;42.872;25.314;2022-09-27T11:26:11;95656.22;;;24.67;52.59
42771;BME280;28426;42.872;25.314;2022-09-27T11:28:53;95656.34;;;24.62;53.08
42771;BME280;28426;42.872;25.314;2022-09-27T11:32:12;95649.59;;;24.59;53.19
42771;BME280;28426;42.872;25.314;2022-09-27T11:34:52;95654.72;;;24.61;52.93
42771;BME280;28426;42.872;25.314;2022-09-27T11:37:31;95664.84;;;24.60;53.22
42771;BME280;28426;42.872;25.314;2022-09-27T11:40:19;95664.63;;;24.56;53.18
42771;BME280;28426;42.872;25.314;2022-09-27T11:43:12;95667.50;;;24.51;53.36
42771;BME280;28426;42.872;25.314;2022-09-27T11:45:54;95673.88;;;24.47;53.24
42771;BME280;28426;42.872;25.314;2022-09-27T11:49:04;95676.09;;;24.45;52.93
42771;BME280;28426;42.872;25.314;2022-09-27T11:54:47;95675.13;;;24.40;53.33
42771;BME280;28426;42.872;25.314;2022-09-27T11:57:27;95674.50;;;24.43;52.74
42771;BME280;28426;42.872;25.314;2022-09-27T12:00:11;95674.31;;;24.40;53.03
42771;BME280;28426;42.872;25.314;2022-09-27T12:03:07;95677.34;;;24.38;52.23
42771;BME280;28426;42.872;25.314;2022-09-27T12:05:59;95671.53;;;24.31;52.71
42771;BME280;28426;42.872;25.314;2022-09-27T12:08:53;95665.91;;;24.27;52.00
42771;BME280;28426;42.872;25.314;2022-09-27T12:11:35;95666.81;;;24.23;52.15
42771;BME280;28426;42.872;25.314;2022-09-27T12:14:17;95669.19;;;24.15;52.41
42771;BME280;28426;42.872;25.314;2022-09-27T12:16:55;95675.03;;;24.09;51.93
42771;BME280;28426;42.872;25.314;2022-09-27T12:19:29;95682.03;;;24.01;51.84
42771;BME280;28426;42.872;25.314;2022-09-27T12:22:14;95677.91;;;23.89;52.32
42771;BME280;28426;42.872;25.314;2022-09-27T12:25:11;95676.53;;;23.78;52.42
42771;BME280;28426;42.872;25.314;2022-09-27T12:28:07;95675.94;;;23.67;53.14
42771;BME280;28426;42.872;25.314;2022-09-27T12:30:47;95674.22;;;23.57;53.07
42771;BME280;28426;42.872;25.314;2022-09-27T12:33:44;95683.13;;;23.49;52.63
42771;BME280;28426;42.872;25.314;2022-09-27T12:36:20;95670.22;;;23.41;53.73
42771;BME280;28426;42.872;25.314;2022-09-27T12:38:56;95670.03;;;23.37;53.17
42771;BME280;28426;42.872;25.314;2022-09-27T12:41:35;95664.38;;;23.33;53.60
42771;BME280;28426;42.872;25.314;2022-09-27T12:44:22;95662.22;;;23.30;53.88
42771;BME280;28426;42.872;25.314;2022-09-27T12:47:05;95664.47;;;23.28;54.34
42771;BME280;28426;42.872;25.314;2022-09-27T12:49:44;95664.47;;;23.28;54.47
42771;BME280;28426;42.872;25.314;2022-09-27T12:52:20;95654.16;;;23.25;54.30
42771;BME280;28426;42.872;25.314;2022-09-27T12:55:08;95659.03;;;23.28;54.27
42771;BME280;28426;42.872;25.314;2022-09-27T12:58:05;95669.69;;;23.24;54.43
42771;BME280;28426;42.872;25.314;2022-09-27T13:00:45;95680.56;;;23.24;54.27
42771;BME280;28426;42.872;25.314;2022-09-27T13:03:34;95678.16;;;23.23;54.31
42771;BME280;28426;42.872;25.314;2022-09-27T13:12:29;95666.88;;;23.16;54.41
42771;BME280;28426;42.872;25.314;2022-09-27T13:15:04;95656.00;;;23.16;54.43
42771;BME280;28426;42.872;25.314;2022-09-27T13:17:50;95649.53;;;23.11;54.75
42771;BME280;28426;42.872;25.314;2022-09-27T13:20:42;95634.63;;;22.95;54.80
42771;BME280;28426;42.872;25.314;2022-09-27T13:23:56;95649.75;;;23.01;54.79
42771;BME280;28426;42.872;25.314;2022-09-27T13:26:49;95631.41;;;22.93;54.68
42771;BME280;28426;42.872;25.314;2022-09-27T13:29:32;95632.59;;;22.86;54.39
42771;BME280;28426;42.872;25.314;2022-09-27T13:32:16;95624.63;;;22.76;54.87
42771;BME280;28426;42.872;25.314;2022-09-27T13:35:11;95627.44;;;22.71;54.68
42771;BME280;28426;42.872;25.314;2022-09-27T13:37:55;95637.81;;;22.69;54.64
42771;BME280;28426;42.872;25.314;2022-09-27T13:40:32;95630.38;;;22.60;55.14
42771;BME280;28426;42.872;25.314;2022-09-27T13:43:38;95625.50;;;22.57;55.42
42771;BME280;28426;42.872;25.314;2022-09-27T13:46:25;95617.94;;;22.54;55.24
42771;BME280;28426;42.872;25.314;2022-09-27T13:49:00;95619.03;;;22.53;55.46
42771;BME280;28426;42.872;25.314;2022-09-27T13:52:18;95602.41;;;22.41;54.95
42771;BME280;28426;42.872;25.314;2022-09-27T13:55:36;95630.50;;;22.50;55.34
42771;BME280;28426;42.872;25.314;2022-09-27T13:58:00;95628.88;;;22.49;55.42
42771;BME280;28426;42.872;25.314;2022-09-27T14:00:39;95623.44;;;22.49;55.53
42771;BME280;28426;42.872;25.314;2022-09-27T14:06:25;95621.56;;;22.50;56.03
42771;BME280;28426;42.872;25.314;2022-09-27T14:08:57;95625.88;;;22.51;56.32
42771;BME280;28426;42.872;25.314;2022-09-27T14:11:35;95629.72;;;22.50;56.13
42771;BME280;28426;42.872;25.314;2022-09-27T14:14:14;95611.66;;;22.40;56.21
42771;BME280;28426;42.872;25.314;2022-09-27T14:16:52;95614.81;;;22.47;55.87
42771;BME280;28426;42.872;25.314;2022-09-27T14:19:23;95621.63;;;22.44;56.23